createdAt,value
2023-03-31T00:01:15.390Z,14.13
2023-03-31T00:03:44.952Z,13.70
2023-03-31T00:06:19.137Z,13.40
2023-03-31T00:08:52.349Z,15.38
2023-03-31T00:11:24.504Z,11.60
2023-03-31T00:13:53.258Z,13.65
2023-03-31T00:16:21.847Z,16.15
2023-03-31T00:18:52.233Z,14.85
2023-03-31T00:21:26.090Z,16.85
2023-03-31T00:24:00.445Z,14.35
2023-03-31T00:26:29.610Z,19.05
2023-03-31T00:28:58.921Z,12.93
2023-03-31T00:31:28.097Z,14.48
2023-03-31T00:33:57.367Z,12.00
2023-03-31T00:36:29.269Z,12.75
2023-03-31T00:39:01.007Z,11.63
2023-03-31T00:41:29.969Z,17.35
2023-03-31T00:44:15.005Z,16.60
2023-03-31T00:46:58.460Z,15.18
2023-03-31T00:49:42.314Z,13.27
2023-03-31T00:52:38.402Z,13.88
2023-03-31T00:55:15.022Z,14.60
2023-03-31T00:57:45.113Z,14.63
2023-03-31T01:00:15.819Z,18.58
2023-03-31T01:02:52.831Z,16.35
2023-03-31T01:05:40.163Z,20.25
2023-03-31T01:08:08.868Z,16.80
2023-03-31T01:10:42.214Z,17.25
2023-03-31T01:15:40.232Z,14.02
2023-03-31T01:18:11.444Z,14.77
2023-03-31T01:21:07.979Z,18.40
2023-03-31T01:26:54.968Z,15.88
2023-03-31T01:29:45.448Z,15.38
2023-03-31T01:32:51.286Z,15.25
2023-03-31T01:35:38.759Z,16.67
2023-03-31T01:38:10.706Z,15.77
2023-03-31T01:41:32.281Z,18.63
2023-03-31T01:44:44.169Z,15.32
2023-03-31T01:47:41.181Z,16.45
2023-03-31T01:50:37.127Z,17.67
2023-03-31T01:53:19.151Z,14.30
2023-03-31T01:56:16.893Z,18.27
2023-03-31T01:58:59.688Z,18.73
2023-03-31T02:01:56.913Z,19.52
2023-03-31T02:04:42.580Z,20.02
2023-03-31T02:07:29.452Z,15.93
2023-03-31T02:10:01.779Z,17.30
2023-03-31T02:12:32.718Z,15.15
2023-03-31T02:15:01.636Z,17.20
2023-03-31T02:17:32.968Z,16.33
2023-03-31T02:20:06.498Z,17.35
2023-03-31T02:22:38.164Z,19.35
2023-03-31T02:25:08.702Z,15.15
2023-03-31T02:27:42.816Z,16.70
2023-03-31T02:30:12.238Z,18.08
2023-03-31T02:32:43.025Z,17.77
2023-03-31T02:35:19.620Z,17.20
2023-03-31T02:37:49.974Z,18.38
2023-03-31T02:40:21.947Z,16.20
2023-03-31T02:42:50.772Z,20.75
2023-03-31T02:45:40.682Z,19.42
2023-03-31T02:48:23.908Z,16.50
2023-03-31T02:51:02.537Z,15.65
2023-03-31T02:53:44.114Z,18.63
2023-03-31T02:56:43.370Z,17.92
2023-03-31T02:59:53.224Z,18.67
2023-03-31T03:02:35.077Z,19.35
2023-03-31T03:05:36.735Z,17.83
2023-03-31T03:08:55.829Z,19.02
2023-03-31T03:11:40.672Z,21.83
2023-03-31T03:17:18.293Z,18.77
2023-03-31T03:19:59.462Z,19.42
2023-03-31T03:22:28.345Z,15.60
2023-03-31T03:24:56.812Z,22.25
2023-03-31T03:27:25.629Z,15.60
2023-03-31T03:29:54.157Z,22.77
2023-03-31T03:32:23.036Z,18.27
2023-03-31T03:34:51.504Z,15.93
2023-03-31T03:37:20.573Z,18.02
2023-03-31T03:39:49.055Z,22.08
2023-03-31T03:42:17.764Z,18.40
2023-03-31T03:44:46.224Z,15.80
2023-03-31T03:47:15.291Z,15.38
2023-03-31T03:49:43.846Z,20.00
2023-03-31T03:52:12.671Z,20.50
2023-03-31T03:54:41.183Z,13.68
2023-03-31T03:57:10.074Z,17.08
2023-03-31T03:59:38.741Z,19.48
2023-03-31T04:02:07.727Z,17.80
2023-03-31T04:04:36.404Z,17.60
2023-03-31T04:07:05.624Z,17.00
2023-03-31T04:09:35.537Z,17.27
2023-03-31T04:12:04.796Z,17.60
2023-03-31T04:14:33.272Z,18.08
2023-03-31T04:17:03.079Z,21.00
2023-03-31T04:19:31.444Z,17.38
2023-03-31T04:22:03.290Z,17.60
2023-03-31T04:24:33.400Z,14.20
2023-03-31T04:27:03.385Z,15.10
2023-03-31T04:29:34.031Z,15.52
2023-03-31T04:32:03.085Z,15.30
2023-03-31T04:34:37.515Z,14.30
2023-03-31T04:37:06.307Z,12.30
2023-03-31T04:39:34.702Z,17.85
2023-03-31T04:42:05.483Z,17.00
2023-03-31T04:44:33.787Z,16.95
2023-03-31T04:47:03.483Z,18.85
2023-03-31T04:49:33.849Z,17.05
2023-03-31T04:52:02.565Z,14.13
2023-03-31T04:54:30.955Z,18.65
2023-03-31T04:56:59.735Z,17.13
2023-03-31T04:59:28.106Z,17.65
2023-03-31T05:01:57.097Z,15.80
2023-03-31T05:04:25.747Z,14.20
2023-03-31T05:06:54.484Z,17.25
2023-03-31T05:09:22.960Z,14.68
2023-03-31T05:11:51.861Z,15.80
2023-03-31T05:14:21.139Z,18.08
2023-03-31T05:16:49.909Z,15.38
2023-03-31T05:19:18.499Z,16.23
2023-03-31T05:21:47.345Z,18.20
2023-03-31T05:24:15.797Z,18.38
2023-03-31T05:26:52.875Z,18.80
2023-03-31T05:29:21.752Z,15.65
2023-03-31T05:31:51.132Z,20.40
2023-03-31T05:34:19.855Z,17.25
2023-03-31T05:36:50.664Z,19.77
2023-03-31T05:39:18.946Z,22.05
2023-03-31T05:41:47.642Z,16.27
2023-03-31T05:44:16.214Z,16.20
2023-03-31T05:46:45.012Z,18.45
2023-03-31T05:49:16.223Z,20.08
2023-03-31T05:51:44.923Z,16.73
2023-03-31T05:54:13.675Z,19.33
2023-03-31T05:56:42.354Z,16.83
2023-03-31T05:59:10.949Z,19.25
2023-03-31T06:01:39.863Z,15.25
2023-03-31T06:04:08.228Z,15.10
2023-03-31T06:06:38.480Z,21.45
2023-03-31T06:09:06.987Z,21.00
2023-03-31T06:11:36.194Z,19.25
2023-03-31T06:14:05.018Z,17.90
2023-03-31T06:16:34.076Z,21.83
2023-03-31T06:19:02.452Z,19.60
2023-03-31T06:21:31.292Z,21.60
2023-03-31T06:24:00.639Z,22.88
2023-03-31T06:26:29.495Z,19.10
2023-03-31T06:28:57.938Z,25.75
2023-03-31T06:31:26.798Z,24.08
2023-03-31T06:33:55.237Z,20.88
2023-03-31T06:36:24.049Z,21.27
2023-03-31T06:38:52.563Z,25.25
2023-03-31T06:41:22.712Z,22.02
2023-03-31T06:43:51.289Z,23.52
2023-03-31T06:46:20.096Z,22.60
2023-03-31T06:48:48.673Z,22.60
2023-03-31T06:51:17.461Z,25.77
2023-03-31T06:53:45.844Z,25.58
2023-03-31T06:56:14.700Z,24.55
2023-03-31T06:58:43.171Z,22.65
2023-03-31T07:01:12.211Z,21.95
2023-03-31T07:03:40.971Z,27.73
2023-03-31T07:06:10.001Z,25.10
2023-03-31T07:08:38.509Z,26.10
2023-03-31T07:11:07.439Z,26.15
2023-03-31T07:13:36.010Z,23.65
2023-03-31T07:16:05.609Z,27.33
2023-03-31T07:18:35.468Z,21.50
2023-03-31T07:21:09.063Z,24.02
2023-03-31T07:23:38.567Z,29.80
2023-03-31T07:26:08.057Z,22.42
2023-03-31T07:28:36.508Z,24.45
2023-03-31T07:31:14.489Z,22.65
2023-03-31T07:33:42.856Z,23.15
2023-03-31T07:36:13.287Z,21.95
2023-03-31T07:38:43.703Z,21.45
2023-03-31T07:41:18.677Z,26.75
2023-03-31T07:43:47.298Z,22.13
2023-03-31T07:46:27.326Z,22.77
2023-03-31T07:48:57.013Z,21.52
2023-03-31T07:51:26.766Z,18.58
2023-03-31T07:53:55.098Z,21.48
2023-03-31T07:56:25.043Z,22.92
2023-03-31T07:58:56.872Z,22.15
2023-03-31T08:01:29.030Z,21.25
2023-03-31T08:03:57.749Z,18.35
2023-03-31T08:06:27.124Z,19.73
2023-03-31T08:08:55.683Z,19.35
2023-03-31T08:11:24.578Z,21.42
2023-03-31T08:13:53.115Z,20.83
2023-03-31T08:16:21.891Z,23.58
2023-03-31T08:18:50.754Z,19.35
2023-03-31T08:21:20.580Z,18.05
2023-03-31T08:23:50.459Z,17.00
2023-03-31T08:26:19.355Z,18.25
2023-03-31T08:28:49.506Z,23.05
2023-03-31T08:31:20.612Z,20.98
2023-03-31T08:33:49.054Z,22.13
2023-03-31T08:36:17.955Z,18.40
2023-03-31T08:38:47.535Z,16.48
2023-03-31T08:41:37.013Z,21.15
2023-03-31T08:44:16.462Z,28.73
2023-03-31T08:46:45.515Z,21.45
2023-03-31T08:49:17.036Z,13.60
2023-03-31T08:51:58.521Z,18.77
2023-03-31T08:54:38.944Z,20.55
2023-03-31T08:57:27.497Z,18.73
2023-03-31T08:59:59.087Z,19.27
2023-03-31T09:02:49.614Z,19.23
2023-03-31T09:05:56.820Z,16.85
2023-03-31T09:08:38.888Z,20.27
2023-03-31T09:11:35.796Z,18.58
2023-03-31T09:14:38.250Z,15.30
2023-03-31T09:17:25.666Z,20.80
2023-03-31T09:20:08.683Z,18.73
2023-03-31T09:22:53.423Z,19.60
2023-03-31T09:25:27.259Z,20.33
2023-03-31T09:27:58.143Z,15.60
2023-03-31T09:30:32.403Z,19.13
2023-03-31T09:33:22.812Z,16.38
2023-03-31T09:35:52.307Z,22.75
2023-03-31T09:38:21.072Z,20.88
2023-03-31T09:40:49.827Z,18.08
2023-03-31T09:43:31.752Z,15.82
2023-03-31T09:46:08.750Z,22.95
2023-03-31T09:48:38.754Z,17.98
2023-03-31T09:51:10.725Z,15.35
2023-03-31T09:53:57.103Z,20.15
2023-03-31T09:56:55.717Z,18.70
2023-03-31T09:59:32.487Z,20.85
2023-03-31T10:02:05.671Z,22.05
2023-03-31T10:04:35.132Z,19.75
2023-03-31T10:07:05.471Z,19.58
2023-03-31T10:09:34.507Z,22.88
2023-03-31T10:12:16.414Z,24.17
2023-03-31T10:14:47.571Z,19.85
2023-03-31T10:17:19.690Z,20.17
2023-03-31T10:19:58.292Z,22.30
2023-03-31T10:22:31.398Z,21.20
2023-03-31T10:25:19.315Z,21.80
2023-03-31T10:27:52.645Z,19.73
2023-03-31T10:33:01.550Z,18.70
2023-03-31T10:35:35.982Z,21.05
2023-03-31T10:38:14.737Z,21.88
2023-03-31T10:40:52.431Z,20.42
2023-03-31T10:43:37.837Z,21.50
2023-03-31T10:46:06.289Z,17.63
2023-03-31T10:48:41.661Z,19.98
2023-03-31T10:51:17.330Z,22.77
2023-03-31T10:53:50.619Z,16.77
2023-03-31T10:56:49.351Z,22.30
2023-03-31T10:59:34.296Z,18.33
2023-03-31T11:02:33.355Z,22.25
2023-03-31T11:05:25.596Z,23.05
2023-03-31T11:08:18.650Z,23.92
2023-03-31T11:11:31.567Z,21.83
2023-03-31T11:14:32.489Z,28.33
2023-03-31T11:17:04.593Z,28.25
2023-03-31T11:19:43.231Z,29.17
2023-03-31T11:22:38.156Z,25.27
2023-03-31T11:25:39.566Z,29.33
2023-03-31T11:28:27.538Z,27.80
2023-03-31T11:31:24.455Z,31.90
2023-03-31T11:34:29.389Z,26.60
2023-03-31T11:37:22.439Z,25.40
2023-03-31T11:40:09.642Z,25.75
2023-03-31T11:42:47.368Z,29.25
2023-03-31T11:45:50.566Z,25.63
2023-03-31T11:48:37.346Z,24.48
2023-03-31T11:51:12.178Z,26.35
2023-03-31T11:53:40.729Z,27.33
2023-03-31T11:56:11.044Z,24.13
2023-03-31T11:58:53.206Z,28.55
2023-03-31T12:01:30.350Z,27.37
2023-03-31T12:04:33.774Z,27.50
2023-03-31T12:07:22.993Z,25.55
2023-03-31T12:10:22.777Z,25.00
2023-03-31T12:13:29.680Z,28.38
2023-03-31T12:16:20.632Z,28.65
2023-03-31T12:19:23.406Z,18.25
2023-03-31T12:22:17.319Z,25.10
2023-03-31T12:24:47.208Z,22.35
2023-03-31T12:27:42.170Z,22.63
2023-03-31T12:30:42.490Z,22.35
2023-03-31T12:33:23.664Z,20.17
2023-03-31T12:36:32.766Z,23.50
2023-03-31T12:39:23.909Z,25.00
2023-03-31T12:42:49.043Z,22.80
2023-03-31T12:45:32.003Z,17.42
2023-03-31T12:51:49.945Z,20.70
2023-03-31T12:54:52.341Z,20.70
2023-03-31T12:57:25.005Z,20.58
2023-03-31T13:02:41.630Z,14.13
2023-03-31T13:05:47.945Z,15.18
2023-03-31T13:09:08.808Z,20.65
2023-03-31T13:11:47.995Z,17.55
2023-03-31T13:14:22.181Z,15.25
2023-03-31T13:16:54.304Z,16.77
2023-03-31T13:19:33.665Z,17.20
2023-03-31T13:22:06.307Z,14.43
2023-03-31T13:24:34.893Z,14.98
2023-03-31T13:27:33.774Z,16.52
2023-03-31T13:30:02.232Z,13.85
2023-03-31T13:32:31.237Z,14.27
2023-03-31T13:35:21.740Z,15.90
2023-03-31T13:38:05.527Z,17.40
2023-03-31T13:41:03.065Z,15.50
2023-03-31T13:44:20.420Z,18.42
2023-03-31T13:47:41.646Z,17.92
2023-03-31T13:50:27.760Z,15.15
2023-03-31T13:53:31.681Z,17.98
2023-03-31T13:56:39.037Z,12.35
2023-03-31T13:59:42.039Z,21.80
2023-03-31T14:02:40.909Z,20.70
2023-03-31T14:05:36.413Z,15.68
2023-03-31T14:08:37.214Z,15.60
2023-03-31T14:11:25.102Z,18.67
2023-03-31T14:14:07.943Z,11.75
2023-03-31T14:17:01.644Z,20.25
2023-03-31T14:19:45.138Z,14.40
2023-03-31T14:22:59.390Z,15.88
2023-03-31T14:25:55.726Z,12.25
2023-03-31T14:28:52.759Z,13.05
2023-03-31T14:31:36.697Z,11.98
2023-03-31T14:34:26.442Z,11.48
2023-03-31T14:37:24.964Z,13.38
2023-03-31T14:39:56.717Z,12.35
2023-03-31T14:42:50.094Z,15.43
2023-03-31T14:45:25.400Z,12.15
2023-03-31T14:47:56.842Z,11.25
2023-03-31T14:50:35.848Z,18.92
2023-03-31T14:53:05.130Z,11.55
2023-03-31T14:55:49.763Z,11.75
2023-03-31T14:58:50.782Z,10.60
2023-03-31T15:01:25.010Z,12.52
2023-03-31T15:03:54.098Z,9.73
2023-03-31T15:06:25.974Z,13.25
2023-03-31T15:08:57.570Z,7.03
2023-03-31T15:11:26.054Z,11.38
2023-03-31T15:14:04.483Z,6.78
2023-03-31T15:16:42.692Z,11.70
2023-03-31T15:19:26.605Z,8.80
2023-03-31T15:22:06.430Z,10.15
2023-03-31T15:24:35.174Z,12.07
2023-03-31T15:27:23.440Z,7.07
2023-03-31T15:29:59.729Z,8.73
2023-03-31T15:32:34.995Z,8.57
2023-03-31T15:35:18.863Z,8.82
2023-03-31T15:37:52.441Z,8.68
2023-03-31T15:40:41.192Z,13.23
2023-03-31T15:45:52.291Z,9.65
2023-03-31T15:48:56.187Z,7.45
2023-03-31T15:51:39.594Z,6.88
2023-03-31T15:54:37.138Z,8.05
2023-03-31T15:57:07.525Z,7.35
2023-03-31T16:02:47.238Z,8.02
2023-03-31T16:08:29.118Z,11.93
2023-03-31T16:11:05.135Z,8.93
2023-03-31T16:13:33.806Z,11.10
2023-03-31T16:16:02.313Z,8.45
2023-03-31T16:18:37.436Z,9.43
2023-03-31T16:21:06.423Z,8.90
2023-03-31T16:23:47.258Z,7.35
2023-03-31T16:26:22.726Z,13.20
2023-03-31T16:28:53.052Z,12.90
2023-03-31T16:31:36.947Z,7.18
2023-03-31T16:34:07.895Z,11.30
2023-03-31T16:36:36.485Z,13.60
2023-03-31T16:39:05.764Z,15.13
2023-03-31T16:41:34.931Z,7.05
2023-03-31T16:44:03.692Z,12.32
2023-03-31T16:46:32.018Z,12.27
2023-03-31T16:49:00.817Z,14.00
2023-03-31T16:51:29.295Z,10.65
2023-03-31T16:53:59.360Z,8.02
2023-03-31T16:56:28.319Z,9.43
2023-03-31T16:58:57.523Z,9.48
2023-03-31T17:01:25.875Z,9.73
2023-03-31T17:03:55.234Z,12.05
2023-03-31T17:06:23.739Z,11.32
2023-03-31T17:08:52.432Z,14.02
2023-03-31T17:11:20.729Z,10.65
2023-03-31T17:13:50.097Z,11.00
2023-03-31T17:16:24.356Z,8.90
2023-03-31T17:19:01.813Z,10.93
2023-03-31T17:21:30.239Z,12.57
2023-03-31T17:24:01.568Z,13.10
2023-03-31T17:26:31.044Z,8.60
2023-03-31T17:29:00.795Z,10.05
2023-03-31T17:31:31.078Z,9.23
2023-03-31T17:33:59.972Z,11.52
2023-03-31T17:36:28.493Z,10.50
2023-03-31T17:38:57.162Z,10.57
2023-03-31T17:41:25.736Z,9.50
2023-03-31T17:43:54.466Z,11.27
2023-03-31T17:46:23.142Z,14.82
2023-03-31T17:48:53.926Z,17.95
2023-03-31T17:51:23.318Z,10.25
2023-03-31T17:53:52.254Z,15.10
2023-03-31T17:56:20.863Z,14.27
2023-03-31T17:58:49.608Z,12.63
2023-03-31T18:01:19.320Z,15.57
2023-03-31T18:03:48.214Z,13.00
2023-03-31T18:06:18.198Z,13.55
2023-03-31T18:08:47.505Z,13.68
2023-03-31T18:11:15.897Z,13.25
2023-03-31T18:13:44.909Z,15.30
2023-03-31T18:16:13.581Z,12.57
2023-03-31T18:18:42.750Z,17.52
2023-03-31T18:21:13.314Z,14.10
2023-03-31T18:23:42.227Z,20.10
2023-03-31T18:26:12.020Z,16.30
2023-03-31T18:28:43.883Z,15.43
2023-03-31T18:31:12.715Z,24.80
2023-03-31T18:33:42.051Z,15.05
2023-03-31T18:36:19.224Z,15.13
2023-03-31T18:38:51.618Z,21.27
2023-03-31T18:41:20.833Z,19.92
2023-03-31T18:43:52.977Z,20.25
2023-03-31T18:46:21.942Z,18.58
2023-03-31T18:48:51.602Z,15.60
2023-03-31T18:51:20.415Z,13.98
2023-03-31T18:53:52.184Z,16.80
2023-03-31T18:56:23.455Z,17.42
2023-03-31T18:58:52.953Z,20.45
2023-03-31T19:01:21.438Z,20.67
2023-03-31T19:03:50.340Z,16.95
2023-03-31T19:06:21.204Z,23.13
2023-03-31T19:08:50.038Z,17.25
2023-03-31T19:11:19.028Z,19.58
2023-03-31T19:13:47.993Z,16.33
2023-03-31T19:16:17.798Z,17.75
2023-03-31T19:18:47.237Z,22.77
2023-03-31T19:21:15.814Z,17.05
2023-03-31T19:23:44.747Z,22.05
2023-03-31T19:26:18.525Z,15.88
2023-03-31T19:28:48.526Z,24.40
2023-03-31T19:31:17.107Z,19.25
2023-03-31T19:33:46.529Z,14.23
2023-03-31T19:36:15.135Z,19.35
2023-03-31T19:38:44.128Z,22.08
2023-03-31T19:41:12.618Z,18.60
2023-03-31T19:43:41.315Z,18.48
2023-03-31T19:46:09.850Z,20.10
2023-03-31T19:48:38.770Z,17.73
2023-03-31T19:51:08.676Z,15.70
2023-03-31T19:53:38.583Z,15.00
2023-03-31T19:56:16.141Z,15.07
2023-03-31T19:58:45.157Z,17.08
2023-03-31T20:01:27.593Z,15.30
2023-03-31T20:06:29.001Z,16.98
2023-03-31T20:11:32.314Z,17.65
2023-03-31T20:14:01.446Z,16.20
2023-03-31T20:16:31.224Z,17.52
2023-03-31T20:19:05.293Z,15.90
2023-03-31T20:21:36.180Z,13.35
2023-03-31T20:24:05.870Z,14.07
2023-03-31T20:26:34.912Z,13.98
2023-03-31T20:29:04.194Z,12.27
2023-03-31T20:31:36.861Z,17.83
2023-03-31T20:34:08.965Z,16.00
2023-03-31T20:36:37.425Z,17.10
2023-03-31T20:39:06.686Z,16.13
2023-03-31T20:41:37.432Z,11.43
2023-03-31T20:44:07.880Z,18.02
2023-03-31T20:46:37.439Z,17.52
2023-03-31T20:49:07.696Z,19.95
2023-03-31T20:51:39.878Z,14.07
2023-03-31T20:54:08.868Z,15.18
2023-03-31T20:56:41.721Z,15.10
2023-03-31T20:59:15.415Z,16.25
2023-03-31T21:01:45.427Z,16.00
2023-03-31T21:04:14.379Z,16.05
2023-03-31T21:06:45.661Z,16.73
2023-03-31T21:09:15.400Z,16.23
2023-03-31T21:11:44.080Z,19.63
2023-03-31T21:14:16.607Z,17.00
2023-03-31T21:16:45.262Z,19.03
2023-03-31T21:19:14.117Z,16.67
2023-03-31T21:21:43.562Z,16.98
2023-03-31T21:24:13.368Z,18.25
2023-03-31T21:26:42.007Z,15.68
2023-03-31T21:29:10.921Z,18.13
2023-03-31T21:31:39.506Z,19.88
2023-03-31T21:34:09.302Z,20.42
2023-03-31T21:36:37.753Z,17.67
2023-03-31T21:39:06.615Z,15.80
2023-03-31T21:41:35.174Z,18.27
2023-03-31T21:44:04.479Z,22.33
2023-03-31T21:46:33.828Z,21.70
2023-03-31T21:49:03.211Z,18.00
2023-03-31T21:51:31.879Z,23.35
2023-03-31T21:54:00.648Z,24.00
2023-03-31T21:56:31.919Z,18.77
2023-03-31T21:59:02.641Z,17.65
2023-03-31T22:01:31.720Z,19.50
2023-03-31T22:04:00.872Z,18.80
2023-03-31T22:06:29.578Z,24.17
2023-03-31T22:08:58.641Z,18.63
2023-03-31T22:11:28.882Z,23.75
2023-03-31T22:13:57.983Z,17.85
2023-03-31T22:16:26.985Z,22.00
2023-03-31T22:18:56.159Z,18.85
2023-03-31T22:21:41.991Z,18.52
2023-03-31T22:24:12.555Z,19.85
2023-03-31T22:26:41.225Z,22.02
2023-03-31T22:29:15.131Z,18.40
2023-03-31T22:31:43.629Z,23.77
2023-03-31T22:34:12.527Z,21.90
2023-03-31T22:36:41.036Z,22.63
2023-03-31T22:39:10.570Z,20.92
2023-03-31T22:41:39.052Z,22.80
2023-03-31T22:44:08.509Z,16.63
2023-03-31T22:46:38.058Z,24.33
2023-03-31T22:49:06.843Z,23.52
2023-03-31T22:51:35.348Z,22.55
2023-03-31T22:54:04.355Z,21.95
2023-03-31T22:56:32.905Z,21.27
2023-03-31T22:59:02.484Z,22.75
2023-03-31T23:01:31.134Z,20.77
2023-03-31T23:04:01.451Z,21.17
2023-03-31T23:06:31.483Z,18.13
2023-03-31T23:09:01.580Z,19.52
2023-03-31T23:11:30.684Z,19.67
2023-03-31T23:13:59.442Z,17.92
2023-03-31T23:16:27.906Z,22.20
2023-03-31T23:18:56.822Z,21.35
2023-03-31T23:21:27.452Z,27.98
2023-03-31T23:23:58.880Z,21.85
2023-03-31T23:26:28.097Z,23.92
2023-03-31T23:28:57.549Z,23.92
2023-03-31T23:31:31.421Z,23.30
2023-03-31T23:34:00.726Z,22.15
2023-03-31T23:36:29.397Z,18.17
2023-03-31T23:38:58.223Z,21.15
2023-03-31T23:41:26.863Z,22.80
2023-03-31T23:43:57.930Z,21.92
2023-03-31T23:46:26.657Z,19.13
2023-03-31T23:48:56.024Z,23.88
2023-03-31T23:51:24.600Z,23.48
2023-03-31T23:53:53.427Z,21.70
2023-03-31T23:56:22.521Z,20.25
2023-03-31T23:58:51.464Z,24.00
